createdAt,value
2022-11-05T03:59:11.264Z,20.67
2022-11-05T04:00:11.651Z,20.64
2022-11-05T04:01:15.793Z,20.64
2022-11-05T04:02:10.245Z,20.72
2022-11-05T04:03:11.979Z,20.71
2022-11-05T04:04:11.724Z,20.75
2022-11-05T04:05:15.684Z,20.72
2022-11-05T04:06:13.880Z,20.72
2022-11-05T04:07:11.665Z,20.75
2022-11-05T04:08:14.511Z,20.76
2022-11-05T04:09:11.701Z,20.68
2022-11-05T04:10:11.706Z,20.78
2022-11-05T04:11:11.686Z,20.86
2022-11-05T04:12:11.710Z,20.76
2022-11-05T04:13:12.094Z,20.85
2022-11-05T04:14:11.828Z,20.86
2022-11-05T04:15:11.102Z,20.82
2022-11-05T04:16:11.152Z,20.81
2022-11-05T04:17:11.206Z,20.81
2022-11-05T04:18:11.679Z,20.96
2022-11-05T04:19:11.674Z,20.91
2022-11-05T04:20:13.181Z,20.93
2022-11-05T04:21:11.672Z,20.91
2022-11-05T04:22:11.720Z,20.91
2022-11-05T04:23:11.352Z,20.91
2022-11-05T04:24:11.696Z,21.03
2022-11-05T04:25:11.703Z,21.01
2022-11-05T04:26:11.006Z,20.96
2022-11-05T04:27:11.689Z,20.96
2022-11-05T04:28:11.678Z,20.97
2022-11-05T04:29:11.781Z,21.06
2022-11-05T04:30:14.208Z,21.06
2022-11-05T04:31:10.971Z,21.01
2022-11-05T04:32:11.720Z,21.04
2022-11-05T04:33:13.539Z,21.00
2022-11-05T04:34:10.969Z,21.06
2022-11-05T04:35:10.965Z,21.16
2022-11-05T04:36:11.726Z,21.00
2022-11-05T04:37:11.686Z,21.04
2022-11-05T04:38:10.929Z,21.09
2022-11-05T04:39:11.753Z,21.06
2022-11-05T04:40:11.194Z,21.08
2022-11-05T04:41:11.225Z,21.13
2022-11-05T04:42:09.920Z,21.01
2022-11-05T04:43:15.086Z,21.03
2022-11-05T04:44:09.924Z,21.12
2022-11-05T04:45:11.692Z,21.11
2022-11-05T04:46:11.401Z,21.19
2022-11-05T04:47:10.011Z,21.09
2022-11-05T04:48:09.922Z,21.12
2022-11-05T04:49:09.927Z,21.23
2022-11-05T04:50:09.963Z,21.19
2022-11-05T04:51:11.743Z,21.21
2022-11-05T04:52:09.878Z,21.19
2022-11-05T04:53:12.074Z,21.16
2022-11-05T04:54:10.905Z,21.27
2022-11-05T04:55:12.691Z,21.25
2022-11-05T04:56:12.290Z,21.15
2022-11-05T04:57:09.941Z,21.23
2022-11-05T04:58:11.700Z,21.21
2022-11-05T04:59:10.907Z,21.33
2022-11-05T05:00:11.730Z,21.21
2022-11-05T05:01:11.032Z,21.23
2022-11-05T05:02:11.793Z,21.28
2022-11-05T05:03:12.232Z,21.27
2022-11-05T05:04:11.229Z,21.30
2022-11-05T05:05:11.724Z,21.28
2022-11-05T05:06:10.880Z,21.27
2022-11-05T05:07:11.768Z,21.25
2022-11-05T05:08:11.237Z,21.28
2022-11-05T05:09:11.792Z,21.30
2022-11-05T05:10:11.722Z,21.30
2022-11-05T05:11:10.816Z,21.31
2022-11-05T05:12:11.702Z,21.30
2022-11-05T05:13:12.262Z,21.30
2022-11-05T05:14:10.810Z,21.27
2022-11-05T05:15:11.718Z,21.28
2022-11-05T05:16:11.741Z,21.27
2022-11-05T05:17:10.790Z,21.31
2022-11-05T05:18:11.242Z,21.31
2022-11-05T05:19:11.234Z,21.28
2022-11-05T05:20:11.741Z,21.31
2022-11-05T05:21:11.721Z,21.25
2022-11-05T05:22:10.783Z,21.33
2022-11-05T05:23:12.156Z,21.34
2022-11-05T05:24:11.230Z,21.33
2022-11-05T05:25:10.769Z,21.37
2022-11-05T05:26:11.727Z,21.28
2022-11-05T05:27:10.753Z,21.34
2022-11-05T05:28:11.734Z,21.28
2022-11-05T05:29:11.838Z,21.34
2022-11-05T05:30:10.777Z,21.34
2022-11-05T05:31:11.725Z,21.31
2022-11-05T05:32:11.744Z,21.37
2022-11-05T05:33:12.027Z,21.30
2022-11-05T05:34:11.266Z,21.37
2022-11-05T05:35:10.745Z,21.31
2022-11-05T05:36:11.690Z,21.33
2022-11-05T05:37:11.248Z,21.33
2022-11-05T05:38:11.233Z,21.28
2022-11-05T05:39:11.338Z,21.31
2022-11-05T05:40:11.235Z,21.37
2022-11-05T05:41:11.241Z,21.28
2022-11-05T05:42:11.234Z,21.30
2022-11-05T05:43:11.599Z,21.33
2022-11-05T05:44:11.322Z,21.28
2022-11-05T05:45:10.875Z,21.28
2022-11-05T05:46:09.706Z,21.34
2022-11-05T05:47:09.711Z,21.28
2022-11-05T05:48:09.689Z,21.30
2022-11-05T05:49:12.499Z,21.33
2022-11-05T05:50:11.262Z,21.30
2022-11-05T05:51:11.241Z,21.36
2022-11-05T05:52:11.257Z,21.30
2022-11-05T05:53:11.491Z,21.33
2022-11-05T05:54:11.259Z,21.30
2022-11-05T05:55:10.693Z,21.25
2022-11-05T05:56:12.221Z,21.28
2022-11-05T05:57:11.241Z,21.28
2022-11-05T05:58:09.732Z,21.30
2022-11-05T05:59:11.277Z,21.25
2022-11-05T06:00:12.324Z,21.27
2022-11-05T06:01:17.298Z,21.28
2022-11-05T06:02:09.946Z,21.23
2022-11-05T06:03:11.720Z,21.23
2022-11-05T06:04:11.290Z,21.27
2022-11-05T06:05:09.639Z,21.27
2022-11-05T06:06:09.633Z,21.31
2022-11-05T06:07:11.277Z,21.28
2022-11-05T06:08:09.788Z,21.28
2022-11-05T06:09:09.616Z,21.19
2022-11-05T06:10:09.611Z,21.21
2022-11-05T06:11:10.325Z,21.28
2022-11-05T06:12:10.816Z,21.21
2022-11-05T06:13:11.734Z,21.23
2022-11-05T06:14:09.631Z,21.31
2022-11-05T06:15:10.787Z,21.30
2022-11-05T06:16:13.333Z,21.22
2022-11-05T06:17:09.718Z,21.23
2022-11-05T06:18:11.835Z,21.25
2022-11-05T06:19:09.600Z,21.23
2022-11-05T06:20:09.917Z,21.21
2022-11-05T06:21:10.586Z,21.33
2022-11-05T06:22:09.596Z,21.23
2022-11-05T06:23:12.843Z,21.25
2022-11-05T06:24:10.554Z,21.22
2022-11-05T06:25:11.299Z,21.18
2022-11-05T06:26:10.786Z,21.30
2022-11-05T06:27:09.554Z,21.22
2022-11-05T06:28:11.294Z,21.23
2022-11-05T06:29:10.772Z,21.22
2022-11-05T06:30:11.300Z,21.31
2022-11-05T06:31:10.614Z,21.33
2022-11-05T06:32:11.353Z,21.16
2022-11-05T06:33:11.565Z,21.23
2022-11-05T06:34:11.355Z,21.21
2022-11-05T06:35:11.367Z,21.27
2022-11-05T06:36:10.788Z,21.34
2022-11-05T06:37:11.307Z,21.21
2022-11-05T06:38:09.518Z,21.34
2022-11-05T06:39:11.327Z,21.25
2022-11-05T06:40:11.401Z,21.30
2022-11-05T06:41:11.285Z,21.23
2022-11-05T06:42:18.456Z,21.23
2022-11-05T06:43:11.645Z,21.28
2022-11-05T06:44:11.348Z,21.25
2022-11-05T06:45:10.496Z,21.23
2022-11-05T06:46:10.557Z,21.30
2022-11-05T06:47:11.341Z,21.27
2022-11-05T06:48:10.828Z,21.22
2022-11-05T06:49:11.333Z,21.19
2022-11-05T06:50:09.550Z,21.30
2022-11-05T06:51:10.486Z,21.23
2022-11-05T06:52:10.472Z,21.25
2022-11-05T06:53:11.231Z,21.28
2022-11-05T06:54:11.419Z,21.30
2022-11-05T06:55:11.467Z,21.28
2022-11-05T06:56:11.436Z,21.25
2022-11-05T06:57:09.840Z,21.27
2022-11-05T06:58:11.388Z,21.25
2022-11-05T06:59:11.347Z,21.28
2022-11-05T07:00:10.444Z,21.31
2022-11-05T07:01:11.491Z,21.31
2022-11-05T07:02:09.535Z,21.30
2022-11-05T07:03:11.624Z,21.30
2022-11-05T07:04:11.358Z,21.25
2022-11-05T07:05:11.317Z,21.31
2022-11-05T07:06:11.297Z,21.27
2022-11-05T07:07:11.310Z,21.33
2022-11-05T07:08:11.356Z,21.36
2022-11-05T07:09:11.378Z,21.34
2022-11-05T07:10:11.319Z,21.37
2022-11-05T07:11:11.375Z,21.31
2022-11-05T07:12:11.302Z,21.36
2022-11-05T07:13:11.781Z,21.37
2022-11-05T07:14:11.354Z,21.34
2022-11-05T07:15:09.388Z,21.43
2022-11-05T07:16:09.365Z,21.38
2022-11-05T07:17:09.392Z,21.38
2022-11-05T07:18:09.417Z,21.34
2022-11-05T07:19:11.333Z,21.37
2022-11-05T07:20:10.827Z,21.45
2022-11-05T07:21:09.359Z,21.40
2022-11-05T07:22:09.402Z,21.41
2022-11-05T07:23:09.706Z,21.45
2022-11-05T07:24:09.351Z,21.40
2022-11-05T07:25:11.347Z,21.43
2022-11-05T07:26:11.316Z,21.45
2022-11-05T07:27:10.872Z,21.51
2022-11-05T07:28:10.818Z,21.51
2022-11-05T07:29:10.821Z,21.45
2022-11-05T07:30:10.828Z,21.48
2022-11-05T07:31:10.819Z,21.53
2022-11-05T07:32:10.844Z,21.43
2022-11-05T07:33:11.126Z,21.52
2022-11-05T07:34:09.337Z,21.55
2022-11-05T07:35:10.830Z,21.46
2022-11-05T07:36:10.860Z,21.43
2022-11-05T07:37:09.292Z,21.53
2022-11-05T07:38:10.877Z,21.61
2022-11-05T07:39:09.338Z,21.55
2022-11-05T07:40:09.279Z,21.49
2022-11-05T07:41:09.306Z,21.58
2022-11-05T07:42:09.287Z,21.58
2022-11-05T07:43:11.164Z,21.56
2022-11-05T07:44:09.276Z,21.62
2022-11-05T07:45:10.786Z,21.64
2022-11-05T07:46:13.668Z,21.66
2022-11-05T07:47:09.258Z,21.74
2022-11-05T07:48:10.866Z,21.71
2022-11-05T07:49:09.342Z,21.76
2022-11-05T07:50:09.246Z,21.76
2022-11-05T07:51:10.853Z,21.83
2022-11-05T07:52:09.244Z,21.78
2022-11-05T07:53:09.597Z,21.85
2022-11-05T07:54:09.319Z,21.92
2022-11-05T07:55:09.327Z,21.89
2022-11-05T07:56:10.876Z,21.94
2022-11-05T07:57:09.238Z,21.92
2022-11-05T07:58:11.022Z,21.99
2022-11-05T07:59:09.220Z,22.02
2022-11-05T08:00:10.875Z,22.09
2022-11-05T08:01:09.381Z,22.11
2022-11-05T08:02:10.624Z,22.08
2022-11-05T08:03:11.354Z,22.18
2022-11-05T08:04:09.223Z,22.12
2022-11-05T08:05:10.916Z,22.12
2022-11-05T08:06:10.360Z,22.11
2022-11-05T08:07:10.850Z,22.14
2022-11-05T08:08:10.877Z,22.12
2022-11-05T08:09:10.912Z,22.26
2022-11-05T08:10:10.860Z,22.31
2022-11-05T08:11:10.880Z,22.30
2022-11-05T08:12:10.891Z,22.24
2022-11-05T08:13:11.648Z,22.31
2022-11-05T08:14:10.962Z,22.30
2022-11-05T08:15:10.195Z,22.34
2022-11-05T08:16:11.027Z,22.39
2022-11-05T08:17:09.192Z,22.33
2022-11-05T08:18:09.222Z,22.42
2022-11-05T08:19:09.326Z,22.45
2022-11-05T08:20:09.183Z,22.46
2022-11-05T08:21:10.883Z,22.48
2022-11-05T08:22:11.184Z,22.45
2022-11-05T08:23:09.551Z,22.51
2022-11-05T08:24:11.043Z,22.63
2022-11-05T08:25:09.190Z,22.59
2022-11-05T08:26:10.885Z,22.63
2022-11-05T08:27:09.176Z,22.61
2022-11-05T08:28:10.912Z,22.60
2022-11-05T08:29:10.879Z,22.75
2022-11-05T08:30:10.870Z,22.70
2022-11-05T08:31:10.897Z,22.70
2022-11-05T08:32:09.304Z,22.78
2022-11-05T08:33:11.335Z,22.85
2022-11-05T08:34:10.893Z,22.79
2022-11-05T08:35:10.885Z,22.85
2022-11-05T08:36:10.884Z,22.82
2022-11-05T08:37:10.902Z,22.86
2022-11-05T08:38:10.888Z,22.88
2022-11-05T08:39:16.715Z,22.91
2022-11-05T08:40:10.414Z,22.96
2022-11-05T08:41:10.881Z,22.97
2022-11-05T08:42:09.105Z,22.94
2022-11-05T08:43:09.676Z,23.06
2022-11-05T08:44:09.252Z,23.04
2022-11-05T08:45:10.423Z,23.10
2022-11-05T08:46:09.107Z,23.04
2022-11-05T08:47:09.162Z,23.06
2022-11-05T08:48:09.246Z,23.12
2022-11-05T08:49:09.299Z,23.14
2022-11-05T08:50:10.119Z,23.16
2022-11-05T08:51:10.921Z,23.19
2022-11-05T08:52:09.303Z,23.22
2022-11-05T08:53:09.522Z,23.24
2022-11-05T08:54:11.405Z,23.28
2022-11-05T08:55:09.163Z,23.24
2022-11-05T08:56:09.134Z,23.41
2022-11-05T08:57:09.384Z,23.40
2022-11-05T08:58:09.097Z,23.37
2022-11-05T08:59:10.921Z,23.37
2022-11-05T09:00:09.916Z,23.42
2022-11-05T09:01:10.994Z,23.50
2022-11-05T09:02:11.110Z,23.47
2022-11-05T09:03:11.336Z,23.45
2022-11-05T09:04:09.064Z,23.55
2022-11-05T09:05:10.906Z,23.53
2022-11-05T09:06:10.958Z,23.60
2022-11-05T09:07:09.091Z,23.55
2022-11-05T09:08:10.903Z,23.63
2022-11-05T09:09:11.000Z,23.63
2022-11-05T09:10:10.934Z,23.64
2022-11-05T09:11:11.009Z,23.71
2022-11-05T09:12:12.985Z,23.71
2022-11-05T09:13:17.753Z,23.74
2022-11-05T09:14:10.925Z,23.67
2022-11-05T09:15:10.931Z,23.77
2022-11-05T09:16:10.436Z,23.84
2022-11-05T09:17:10.938Z,23.89
2022-11-05T09:18:10.964Z,23.84
2022-11-05T09:19:09.224Z,23.81
2022-11-05T09:20:11.057Z,23.92
2022-11-05T09:21:11.043Z,23.92
2022-11-05T09:22:10.933Z,23.97
2022-11-05T09:23:09.486Z,23.94
2022-11-05T09:24:09.354Z,24.00
2022-11-05T09:25:09.912Z,23.93
2022-11-05T09:26:09.312Z,23.96
2022-11-05T09:27:11.031Z,24.04
2022-11-05T09:28:14.650Z,24.03
2022-11-05T09:29:14.049Z,24.09
2022-11-05T09:30:09.043Z,24.11
2022-11-05T09:31:10.972Z,24.09
2022-11-05T09:32:10.939Z,24.11
2022-11-05T09:33:09.345Z,24.18
2022-11-05T09:34:11.029Z,24.18
2022-11-05T09:35:09.056Z,24.14
2022-11-05T09:36:10.956Z,24.17
2022-11-05T09:37:11.116Z,24.27
2022-11-05T09:38:09.051Z,24.29
2022-11-05T09:39:10.931Z,24.22
2022-11-05T09:40:10.932Z,24.19
2022-11-05T09:41:10.072Z,24.26
2022-11-05T09:42:10.988Z,24.26
2022-11-05T09:43:11.329Z,24.27
2022-11-05T09:44:10.977Z,24.30
2022-11-05T09:45:10.976Z,24.33
2022-11-05T09:46:10.958Z,24.30
2022-11-05T09:47:10.935Z,24.40
2022-11-05T09:48:11.127Z,24.40
2022-11-05T09:49:10.957Z,24.45
2022-11-05T09:50:10.948Z,24.48
2022-11-05T09:51:10.968Z,24.48
2022-11-05T09:52:11.074Z,24.55
2022-11-05T09:53:11.309Z,24.54
2022-11-05T09:54:10.972Z,24.59
2022-11-05T09:55:10.074Z,24.56
2022-11-05T09:56:10.992Z,24.66
2022-11-05T09:57:11.107Z,24.63
2022-11-05T09:58:10.971Z,24.71
2022-11-05T09:59:09.001Z,24.71
2022-11-05T10:00:09.018Z,24.82
2022-11-05T10:01:09.109Z,24.67
2022-11-05T10:02:10.581Z,24.78
2022-11-05T10:13:21.310Z,24.97
2022-11-05T10:14:21.146Z,25.04
2022-11-05T10:15:19.680Z,25.02
2022-11-05T10:16:21.144Z,25.09
2022-11-05T10:17:19.678Z,25.01
2022-11-05T10:18:21.158Z,25.04
2022-11-05T10:19:19.668Z,25.08
2022-11-05T10:20:19.644Z,25.07
2022-11-05T10:21:37.568Z,25.07
2022-11-05T10:22:19.639Z,25.00
2022-11-05T10:23:19.596Z,25.08
2022-11-05T10:24:19.624Z,25.11
2022-11-05T10:25:21.270Z,25.11
2022-11-05T10:26:20.138Z,25.07
2022-11-05T10:27:19.599Z,25.11
2022-11-05T10:28:19.592Z,25.15
2022-11-05T10:29:19.619Z,25.09
2022-11-05T10:30:21.132Z,25.23
2022-11-05T10:31:23.177Z,25.19
2022-11-05T10:32:22.207Z,25.24
2022-11-05T10:33:19.658Z,25.15
2022-11-05T10:34:21.135Z,25.22
2022-11-05T10:35:19.645Z,25.24
2022-11-05T10:36:21.150Z,25.24
2022-11-05T10:37:19.658Z,25.19
2022-11-05T10:38:22.326Z,25.20
2022-11-05T10:39:21.152Z,25.27
2022-11-05T10:40:20.697Z,25.19
2022-11-05T10:41:21.146Z,25.24
2022-11-05T10:42:21.151Z,25.24
2022-11-05T10:43:21.225Z,25.20
2022-11-05T10:44:21.213Z,25.22
2022-11-05T10:45:21.293Z,25.14
2022-11-05T10:46:27.158Z,25.19
2022-11-05T10:47:19.787Z,25.17
2022-11-05T10:48:21.263Z,25.17
2022-11-05T10:49:21.167Z,25.09
2022-11-05T10:50:21.184Z,25.15
2022-11-05T10:51:21.179Z,25.07
2022-11-05T10:52:21.479Z,25.14
2022-11-05T10:53:21.144Z,25.15
2022-11-05T10:54:21.163Z,25.19
2022-11-05T10:55:20.665Z,25.17
2022-11-05T10:56:19.641Z,25.15
2022-11-05T10:57:19.612Z,25.24
2022-11-05T10:58:19.589Z,25.19
2022-11-05T10:59:19.673Z,25.29
2022-11-05T11:00:21.173Z,25.22
2022-11-05T11:01:21.347Z,25.22
2022-11-05T11:02:21.355Z,25.20
2022-11-05T11:03:21.156Z,25.15
2022-11-05T11:04:21.186Z,25.22
2022-11-05T11:05:21.329Z,25.20
2022-11-05T11:06:21.186Z,25.22
2022-11-05T11:07:21.219Z,25.14
2022-11-05T11:08:21.158Z,25.24
2022-11-05T11:09:22.165Z,25.23
2022-11-05T11:10:21.179Z,25.17
2022-11-05T11:11:21.300Z,25.23
2022-11-05T11:12:21.184Z,25.23
2022-11-05T11:13:21.196Z,25.24
2022-11-05T11:14:19.890Z,25.15
2022-11-05T11:15:19.835Z,25.19
2022-11-05T11:16:21.242Z,25.15
2022-11-05T11:17:19.598Z,25.17
2022-11-05T11:18:19.583Z,25.22
2022-11-05T11:19:21.293Z,25.22
2022-11-05T11:20:19.646Z,25.22
2022-11-05T11:21:19.600Z,25.24
2022-11-05T11:22:19.708Z,25.19
2022-11-05T11:23:22.131Z,25.20
2022-11-05T11:24:19.633Z,25.19
2022-11-05T11:25:19.673Z,25.17
2022-11-05T11:26:19.604Z,25.23
2022-11-05T11:27:19.674Z,25.24
2022-11-05T11:28:21.301Z,25.29
2022-11-05T11:29:19.578Z,25.34
2022-11-05T11:30:21.206Z,25.37
2022-11-05T11:31:19.597Z,25.37
2022-11-05T11:32:20.595Z,25.42
2022-11-05T11:33:21.342Z,25.37
2022-11-05T11:34:20.184Z,25.41
2022-11-05T11:35:21.224Z,25.44
2022-11-05T11:36:21.401Z,25.52
2022-11-05T11:37:21.220Z,25.57
2022-11-05T11:38:21.205Z,25.52
2022-11-05T11:39:21.232Z,25.57
2022-11-05T11:40:21.522Z,25.57
2022-11-05T11:41:21.260Z,25.54
2022-11-05T11:42:21.245Z,25.66
2022-11-05T11:43:21.237Z,25.63
2022-11-05T11:44:21.274Z,25.71
2022-11-05T11:45:21.207Z,25.82
2022-11-05T11:46:21.220Z,25.75
2022-11-05T11:47:21.222Z,25.86
2022-11-05T11:48:21.262Z,25.88
2022-11-05T11:49:21.360Z,25.91
2022-11-05T11:50:21.217Z,26.00
2022-11-05T11:51:21.226Z,26.09
2022-11-05T11:52:21.253Z,26.15
2022-11-05T11:53:21.206Z,26.24
2022-11-05T11:54:20.868Z,26.26
2022-11-05T11:55:22.862Z,26.44
2022-11-05T11:56:22.277Z,26.50
2022-11-05T11:57:21.319Z,26.50
2022-11-05T11:58:21.294Z,26.64
2022-11-05T11:59:27.266Z,26.71
2022-11-05T12:00:21.212Z,26.81
2022-11-05T12:01:21.309Z,27.00
2022-11-05T12:02:19.871Z,27.05
2022-11-05T12:03:20.037Z,27.13
2022-11-05T12:04:19.751Z,27.21
2022-11-05T12:05:19.636Z,27.31
2022-11-05T12:06:20.263Z,27.43
2022-11-05T12:07:19.624Z,27.41
2022-11-05T12:08:21.237Z,27.53
2022-11-05T12:09:19.610Z,27.59
2022-11-05T12:10:21.235Z,27.79
2022-11-05T12:11:20.613Z,27.87
2022-11-05T12:12:21.383Z,28.01
2022-11-05T12:13:19.737Z,28.08
2022-11-05T12:14:21.285Z,28.16
2022-11-05T12:15:19.609Z,28.33
2022-11-05T12:16:21.238Z,28.49
2022-11-05T12:17:21.558Z,28.63
2022-11-05T12:18:19.633Z,28.72
2022-11-05T12:19:21.276Z,28.85
2022-11-05T12:20:21.345Z,28.92
2022-11-05T12:21:40.717Z,29.10
2022-11-05T12:22:21.245Z,29.11
2022-11-05T12:23:20.676Z,29.36
2022-11-05T12:24:25.272Z,29.39
2022-11-05T12:25:19.669Z,29.48
2022-11-05T12:26:19.814Z,29.58
2022-11-05T12:27:20.896Z,29.70
2022-11-05T12:28:21.272Z,29.81
2022-11-05T12:29:19.782Z,29.85
2022-11-05T12:30:19.710Z,29.95
2022-11-05T12:31:19.706Z,30.06
2022-11-05T12:32:20.852Z,30.24
2022-11-05T12:33:21.325Z,30.26
2022-11-05T12:34:20.760Z,30.47
2022-11-05T12:35:21.286Z,30.57
2022-11-05T12:36:19.664Z,30.59
2022-11-05T12:37:20.303Z,30.71
2022-11-05T12:38:20.727Z,30.75
2022-11-05T12:39:21.275Z,30.79
2022-11-05T12:40:21.350Z,30.77
2022-11-05T12:41:20.720Z,30.88
2022-11-05T12:42:21.283Z,30.91
2022-11-05T12:43:21.322Z,30.89
2022-11-05T12:44:19.780Z,30.82
2022-11-05T12:45:20.859Z,30.79
2022-11-05T12:46:21.299Z,30.69
2022-11-05T12:47:21.276Z,30.62
2022-11-05T12:48:27.547Z,30.54
2022-11-05T12:49:19.796Z,30.48
2022-11-05T12:50:21.245Z,30.37
2022-11-05T12:51:20.771Z,30.28
2022-11-05T12:52:20.314Z,30.22
2022-11-05T12:53:20.809Z,30.07
2022-11-05T12:54:21.226Z,29.98
2022-11-05T12:55:21.739Z,29.79
2022-11-05T12:56:20.795Z,29.65
2022-11-05T12:57:21.229Z,29.48
2022-11-05T12:58:20.788Z,29.40
2022-11-05T12:59:19.791Z,29.26
2022-11-05T13:00:19.786Z,29.11
2022-11-05T13:01:20.964Z,29.11
2022-11-05T13:02:19.850Z,28.90
2022-11-05T13:03:20.840Z,28.98
2022-11-05T13:04:21.283Z,28.86
2022-11-05T13:05:19.769Z,28.85
2022-11-05T13:06:21.298Z,28.80
2022-11-05T13:07:21.314Z,28.75
2022-11-05T13:08:21.502Z,28.68
2022-11-05T13:09:27.602Z,28.61
2022-11-05T13:10:21.406Z,28.65
2022-11-05T13:11:21.583Z,28.65
2022-11-05T13:12:20.885Z,28.83
2022-11-05T13:13:21.347Z,28.97
2022-11-05T13:14:21.301Z,29.08
2022-11-05T13:15:21.360Z,29.33
2022-11-05T13:16:21.346Z,29.42
2022-11-05T13:17:21.331Z,29.52
2022-11-05T13:18:21.377Z,29.54
2022-11-05T13:19:21.402Z,29.61
2022-11-05T13:20:20.960Z,29.50
2022-11-05T13:21:21.304Z,29.32
2022-11-05T13:22:21.450Z,29.08
2022-11-05T13:23:21.335Z,28.98
2022-11-05T13:24:21.353Z,28.91
2022-11-05T13:25:21.422Z,28.70
2022-11-05T13:26:20.810Z,28.72
2022-11-05T13:27:19.812Z,28.57
2022-11-05T13:28:21.413Z,28.54
2022-11-05T13:29:21.463Z,28.43
2022-11-05T13:30:20.932Z,28.43
2022-11-05T13:31:19.835Z,28.43
2022-11-05T13:32:21.324Z,28.41
2022-11-05T13:33:19.827Z,28.39
2022-11-05T13:34:21.330Z,28.41
2022-11-05T13:35:19.819Z,28.46
2022-11-05T13:36:20.043Z,28.33
2022-11-05T13:37:19.869Z,28.28
2022-11-05T13:38:20.895Z,28.18
2022-11-05T13:39:20.883Z,28.08
2022-11-05T13:40:20.887Z,28.02
2022-11-05T13:41:20.998Z,28.03
2022-11-05T13:42:20.874Z,27.98
2022-11-05T13:43:21.366Z,28.01
2022-11-05T13:44:21.362Z,27.87
2022-11-05T13:45:21.361Z,27.76
2022-11-05T13:46:21.420Z,27.55
2022-11-05T13:47:21.403Z,27.49
2022-11-05T13:48:20.828Z,27.46
2022-11-05T13:49:21.353Z,27.34
2022-11-05T13:50:22.832Z,27.28
2022-11-05T13:51:20.858Z,27.26
2022-11-05T13:52:21.588Z,27.18
2022-11-05T13:53:20.875Z,26.99
2022-11-05T13:54:21.036Z,26.86
2022-11-05T13:55:22.854Z,26.84
2022-11-05T13:56:19.859Z,26.71
2022-11-05T13:57:21.372Z,26.60
2022-11-05T13:58:19.911Z,26.50
2022-11-05T13:59:21.374Z,26.45
2022-11-05T14:00:20.895Z,26.32
2022-11-05T14:01:20.965Z,26.24
2022-11-05T14:02:21.022Z,26.19
2022-11-05T14:03:20.859Z,26.15
2022-11-05T14:04:22.871Z,26.00
2022-11-05T14:05:20.852Z,25.96
2022-11-05T14:06:20.834Z,25.78
2022-11-05T14:07:21.456Z,25.81
2022-11-05T14:08:19.839Z,25.76
2022-11-05T14:09:19.864Z,25.54
2022-11-05T14:10:21.421Z,25.62
2022-11-05T14:11:22.078Z,25.45
2022-11-05T14:12:21.609Z,25.38
2022-11-05T14:13:20.871Z,25.38
2022-11-05T14:14:21.438Z,25.30
2022-11-05T14:15:21.443Z,25.20
2022-11-05T14:16:21.183Z,25.14
2022-11-05T14:17:21.469Z,25.15
2022-11-05T14:18:20.902Z,25.04
2022-11-05T14:19:21.180Z,25.04
2022-11-05T14:20:21.384Z,24.94
2022-11-05T14:21:20.891Z,24.90
2022-11-05T14:22:21.379Z,24.83
2022-11-05T14:23:21.508Z,24.80
2022-11-05T14:24:21.366Z,24.78
2022-11-05T14:25:20.871Z,24.71
2022-11-05T14:26:21.406Z,24.66
2022-11-05T14:27:20.045Z,24.55
2022-11-05T14:28:19.827Z,24.45
2022-11-05T14:29:19.942Z,24.54
2022-11-05T14:30:21.388Z,24.48
2022-11-05T14:31:20.384Z,24.34
2022-11-05T14:32:21.392Z,24.32
2022-11-05T14:33:19.968Z,24.29
2022-11-05T14:34:19.834Z,24.21
2022-11-05T14:35:19.817Z,24.26
2022-11-05T14:36:19.827Z,24.15
2022-11-05T14:37:21.426Z,24.15
2022-11-05T14:38:19.805Z,24.14
2022-11-05T14:39:19.849Z,24.07
2022-11-05T14:40:19.793Z,24.11
2022-11-05T14:41:21.455Z,24.02
2022-11-05T14:42:21.411Z,24.04
2022-11-05T14:43:21.391Z,23.89
2022-11-05T14:44:21.389Z,23.96
2022-11-05T14:45:21.411Z,23.87
2022-11-05T14:46:21.459Z,23.82
2022-11-05T14:47:21.418Z,23.82
2022-11-05T14:48:21.426Z,23.79
2022-11-05T14:49:21.412Z,23.77
2022-11-05T14:50:21.383Z,23.74
2022-11-05T14:51:21.425Z,23.70
2022-11-05T14:52:20.638Z,23.64
2022-11-05T14:53:20.816Z,23.60
2022-11-05T14:54:22.451Z,23.57
2022-11-05T14:55:20.887Z,23.55
2022-11-05T14:56:21.447Z,23.50
2022-11-05T14:57:21.472Z,23.45
2022-11-05T14:58:19.862Z,23.44
2022-11-05T14:59:21.419Z,23.40
2022-11-05T15:00:19.778Z,23.37
2022-11-05T15:01:22.559Z,23.41
2022-11-05T15:02:21.672Z,23.40
2022-11-05T15:03:20.806Z,23.29
2022-11-05T15:04:20.932Z,23.24
2022-11-05T15:05:19.763Z,23.28
2022-11-05T15:06:20.753Z,23.21
2022-11-05T15:07:21.441Z,23.18
2022-11-05T15:08:19.779Z,23.15
2022-11-05T15:09:19.764Z,23.16
2022-11-05T15:10:19.759Z,23.16
2022-11-05T15:11:20.937Z,23.07
2022-11-05T15:12:19.750Z,23.04
2022-11-05T15:13:20.934Z,23.06
2022-11-05T15:14:20.790Z,23.12
2022-11-05T15:15:22.170Z,23.03
2022-11-05T15:16:20.958Z,23.07
2022-11-05T15:17:20.798Z,22.99
2022-11-05T15:18:20.964Z,22.99
2022-11-05T15:19:21.345Z,22.91
2022-11-05T15:20:20.980Z,22.96
2022-11-05T15:21:20.723Z,22.92
2022-11-05T15:22:21.829Z,22.81
2022-11-05T15:23:20.731Z,22.78
2022-11-05T15:24:21.434Z,22.79
2022-11-05T15:25:21.500Z,22.73
2022-11-05T15:26:21.968Z,22.82
2022-11-05T15:27:19.705Z,22.78
2022-11-05T15:28:21.481Z,22.78
2022-11-05T15:29:19.691Z,22.71
2022-11-05T15:30:20.904Z,22.78
2022-11-05T15:31:20.782Z,22.71
2022-11-05T15:32:19.711Z,22.75
2022-11-05T15:33:20.933Z,22.60
2022-11-05T15:34:21.455Z,22.60
2022-11-05T15:35:21.605Z,22.57
2022-11-05T15:36:20.951Z,22.66
2022-11-05T15:37:19.687Z,22.66
2022-11-05T15:38:19.714Z,22.63
2022-11-05T15:39:35.032Z,22.59
2022-11-05T15:40:19.679Z,22.60
2022-11-05T15:41:19.710Z,22.45
2022-11-05T15:42:21.496Z,22.46
2022-11-05T15:43:21.434Z,22.49
2022-11-05T15:44:21.443Z,22.46
2022-11-05T15:45:21.551Z,22.52
2022-11-05T15:46:22.677Z,22.41
2022-11-05T15:47:21.456Z,22.46
2022-11-05T15:48:21.534Z,22.44
2022-11-05T15:49:20.688Z,22.44
2022-11-05T15:50:21.470Z,22.44
2022-11-05T15:51:20.704Z,22.33
2022-11-05T15:52:21.452Z,22.38
2022-11-05T15:53:47.332Z,22.42
2022-11-05T15:54:36.533Z,22.39
2022-11-05T15:55:21.512Z,22.33
2022-11-05T15:56:21.880Z,22.36
2022-11-05T15:57:21.467Z,22.33
2022-11-05T15:58:21.475Z,22.34
2022-11-05T15:59:21.451Z,22.31
2022-11-05T16:00:21.449Z,22.27
2022-11-05T16:01:21.796Z,22.27
2022-11-05T16:12:31.503Z,22.09
2022-11-05T16:13:30.440Z,22.12
2022-11-05T16:14:30.435Z,22.09
2022-11-05T16:15:32.493Z,22.09
2022-11-05T16:16:30.365Z,22.08
2022-11-05T16:17:30.355Z,22.05
2022-11-05T16:18:31.598Z,22.07
2022-11-05T16:19:35.469Z,22.04
2022-11-05T16:20:31.483Z,22.02
2022-11-05T16:21:31.488Z,22.02
2022-11-05T16:22:31.368Z,22.00
2022-11-05T16:23:32.509Z,21.94
2022-11-05T16:24:31.327Z,21.94
2022-11-05T16:25:31.324Z,22.02
2022-11-05T16:27:00.787Z,21.94
2022-11-05T16:27:31.998Z,21.92
2022-11-05T16:28:32.095Z,21.89
2022-11-05T16:29:30.419Z,21.93
2022-11-05T16:30:31.994Z,21.94
2022-11-05T16:31:32.000Z,21.96
2022-11-05T16:32:31.991Z,21.94
2022-11-05T16:33:31.614Z,21.89
2022-11-05T16:34:32.029Z,21.97
2022-11-05T16:35:32.074Z,21.89
2022-11-05T16:36:31.315Z,21.97
2022-11-05T16:37:32.091Z,21.93
2022-11-05T16:38:32.181Z,21.92
2022-11-05T16:39:30.267Z,21.97
2022-11-05T16:40:31.340Z,21.96
2022-11-05T16:41:31.491Z,21.89
2022-11-05T16:42:31.261Z,21.93
2022-11-05T16:43:32.007Z,21.90
2022-11-05T16:44:31.277Z,21.86
2022-11-05T16:45:31.253Z,21.89
2022-11-05T16:46:32.557Z,21.85
2022-11-05T16:47:30.273Z,21.90
2022-11-05T16:48:31.533Z,21.85
2022-11-05T16:49:31.991Z,21.86
2022-11-05T16:50:31.505Z,21.86
2022-11-05T16:51:32.038Z,21.86
2022-11-05T16:52:32.002Z,21.80
2022-11-05T16:53:32.073Z,21.83
2022-11-05T16:54:32.038Z,21.86
2022-11-05T16:55:32.242Z,21.78
2022-11-05T16:56:32.042Z,21.90
2022-11-05T16:57:32.042Z,21.83
2022-11-05T16:58:31.549Z,21.83
2022-11-05T16:59:31.995Z,21.89
2022-11-05T17:00:32.056Z,21.90
2022-11-05T17:01:32.128Z,21.80
2022-11-05T17:02:31.368Z,21.90
2022-11-05T17:03:32.254Z,21.83
2022-11-05T17:04:31.191Z,21.76
2022-11-05T17:05:31.207Z,21.80
2022-11-05T17:06:32.126Z,21.86
2022-11-05T17:07:35.792Z,21.76
2022-11-05T17:08:30.254Z,21.82
2022-11-05T17:09:32.068Z,21.85
2022-11-05T17:10:32.076Z,21.82
2022-11-05T17:11:32.055Z,21.89